createdAt,value
2019-05-05T17:18:54.953Z,81.20
2019-05-05T17:21:31.578Z,85.00
2019-05-05T17:24:03.869Z,82.50
2019-05-05T17:26:32.898Z,84.00
2019-05-05T17:29:03.646Z,90.20
2019-05-05T17:31:33.988Z,89.20
2019-05-05T17:34:04.172Z,82.90
2019-05-05T17:36:33.137Z,85.90
2019-05-05T17:39:01.961Z,83.70
2019-05-05T17:41:49.840Z,86.70
2019-05-05T17:44:25.880Z,82.60
2019-05-05T17:47:24.458Z,87.40
2019-05-05T17:50:21.577Z,85.40
2019-05-05T17:53:04.930Z,90.30
2019-05-05T17:55:35.537Z,85.50
2019-05-05T17:58:05.387Z,87.40
2019-05-05T18:00:40.043Z,87.90
2019-05-05T18:03:08.803Z,89.50
2019-05-05T18:06:15.110Z,89.80
2019-05-05T18:08:47.057Z,90.30
2019-05-05T18:11:35.185Z,89.80
2019-05-05T18:14:08.686Z,90.40
2019-05-05T18:16:37.530Z,89.30
2019-05-05T18:19:06.403Z,91.10
2019-05-05T18:21:35.602Z,92.00
2019-05-05T18:24:04.653Z,91.70
2019-05-05T18:26:34.126Z,92.80
2019-05-05T18:29:03.759Z,92.50
2019-05-05T18:31:33.690Z,92.60
2019-05-05T18:34:03.991Z,93.50
2019-05-05T18:36:32.969Z,94.50
2019-05-05T18:39:01.788Z,93.70
2019-05-05T18:41:44.023Z,93.90
2019-05-05T18:44:17.816Z,93.30
2019-05-05T18:46:48.457Z,93.70
2019-05-05T18:49:17.202Z,95.20
2019-05-05T18:51:46.004Z,97.00
2019-05-05T18:54:15.186Z,97.40
2019-05-05T18:56:44.136Z,98.50
2019-05-05T18:59:12.929Z,99.30
2019-05-05T19:01:54.693Z,99.90
2019-05-05T19:04:29.223Z,99.90
2019-05-05T19:07:11.456Z,99.90
2019-05-05T19:09:51.010Z,99.90
2019-05-05T19:12:11.370Z,99.90
2019-05-05T19:14:40.113Z,99.90
2019-05-05T19:17:09.380Z,99.90
2019-05-05T19:19:39.812Z,99.90
2019-05-05T19:22:11.091Z,99.90
2019-05-05T19:24:39.859Z,99.90
2019-05-05T19:27:08.715Z,99.90
2019-05-05T19:29:37.467Z,99.90
2019-05-05T19:32:06.378Z,99.90
2019-05-05T19:34:35.537Z,99.90
2019-05-05T19:37:04.799Z,99.90
2019-05-05T19:39:34.443Z,99.90
2019-05-05T19:42:04.853Z,99.90
2019-05-05T19:44:34.000Z,99.90
2019-05-05T19:47:24.272Z,99.90
2019-05-05T19:50:02.446Z,99.90
2019-05-05T19:52:31.215Z,99.90
2019-05-05T19:55:00.029Z,99.90
2019-05-05T19:57:28.780Z,99.90
2019-05-05T19:59:58.098Z,99.90
2019-05-05T20:02:27.210Z,99.90
2019-05-05T20:04:55.951Z,99.90
2019-05-05T20:07:25.025Z,99.90
2019-05-05T20:09:54.335Z,99.90
2019-05-05T20:12:23.271Z,99.90
2019-05-05T20:14:54.252Z,99.90
2019-05-05T20:17:33.720Z,99.90
2019-05-05T20:20:04.471Z,99.90
2019-05-05T20:22:34.769Z,99.90
2019-05-05T20:25:04.379Z,99.90
2019-05-05T20:27:34.346Z,99.90
2019-05-05T20:30:06.228Z,99.90
2019-05-05T20:32:43.997Z,99.90
2019-05-05T20:35:19.365Z,99.90
2019-05-05T20:37:54.978Z,99.90
2019-05-05T20:40:26.662Z,99.90
2019-05-05T20:42:55.426Z,99.90
2019-05-05T20:45:27.006Z,99.90
2019-05-05T20:47:55.782Z,99.90
2019-05-05T20:50:24.797Z,99.90
2019-05-05T20:52:53.713Z,99.90
2019-05-05T20:55:22.525Z,99.90
2019-05-05T20:57:53.696Z,99.90
